createdAt,value
2019-01-11T00:02:26.745Z,17.27
2019-01-11T00:07:29.663Z,15.63
2019-01-11T00:12:33.919Z,17.83
2019-01-11T00:17:36.797Z,17.07
2019-01-11T00:22:42.904Z,16.97
2019-01-11T00:27:45.754Z,16.63
2019-01-11T00:32:48.656Z,16.40
2019-01-11T00:37:51.524Z,15.80
2019-01-11T00:42:54.360Z,18.03
2019-01-11T00:47:57.263Z,15.30
2019-01-11T00:53:00.195Z,15.63
2019-01-11T00:58:03.194Z,16.13
2019-01-11T01:03:06.138Z,14.47
2019-01-11T01:08:09.013Z,14.37
2019-01-11T01:13:11.947Z,15.10
2019-01-11T01:18:14.819Z,16.57
2019-01-11T01:23:17.750Z,16.20
2019-01-11T01:28:20.646Z,13.97
2019-01-11T01:33:23.500Z,13.30
2019-01-11T01:38:26.306Z,13.60
2019-01-11T01:43:30.210Z,13.90
2019-01-11T01:48:33.077Z,13.93
2019-01-11T01:53:36.090Z,14.80
2019-01-11T01:58:41.684Z,14.00
2019-01-11T02:03:44.541Z,14.70
2019-01-11T02:08:47.365Z,15.17
2019-01-11T02:13:50.282Z,13.73
2019-01-11T02:18:53.145Z,14.47
2019-01-11T02:23:56.003Z,14.67
2019-01-11T02:28:58.866Z,15.47
2019-01-11T02:34:01.724Z,14.00
2019-01-11T02:39:19.934Z,15.57
2019-01-11T02:44:23.544Z,14.77
2019-01-11T02:49:26.413Z,15.43
2019-01-11T02:54:29.299Z,12.80
2019-01-11T02:59:32.148Z,13.73
2019-01-11T03:04:35.008Z,13.97
2019-01-11T03:09:37.875Z,16.23
2019-01-11T03:14:41.498Z,19.00
2019-01-11T03:19:47.925Z,19.53
2019-01-11T03:24:52.263Z,22.27
2019-01-11T03:29:55.089Z,23.60
2019-01-11T03:35:17.703Z,25.17
2019-01-11T03:40:24.483Z,28.70
2019-01-11T03:45:27.461Z,27.33
2019-01-11T03:50:30.343Z,30.20
2019-01-11T03:55:33.222Z,30.73
2019-01-11T04:00:36.154Z,34.70
2019-01-11T04:05:45.127Z,42.80
2019-01-11T04:10:47.976Z,43.43
2019-01-11T04:15:51.391Z,42.20
2019-01-11T04:20:54.466Z,43.43
2019-01-11T04:25:57.349Z,51.53
2019-01-11T04:31:03.374Z,46.00
2019-01-11T04:36:08.975Z,55.40
2019-01-11T04:41:11.875Z,60.23
2019-01-11T04:46:14.725Z,58.23
2019-01-11T04:51:17.587Z,60.30
2019-01-11T04:56:23.662Z,72.90
2019-01-11T05:01:29.576Z,62.13
2019-01-11T05:06:32.471Z,70.47
2019-01-11T05:11:35.310Z,81.57
2019-01-11T05:16:48.664Z,74.80
2019-01-11T05:21:42.840Z,84.20
2019-01-11T05:26:45.713Z,82.33
2019-01-11T05:31:48.844Z,78.67
2019-01-11T05:36:51.861Z,222.67
2019-01-11T05:41:54.744Z,77.27
2019-01-11T05:46:57.580Z,90.40
2019-01-11T05:52:00.457Z,95.03
2019-01-11T05:57:03.443Z,85.77
2019-01-11T06:02:06.293Z,92.63
2019-01-11T06:07:37.642Z,82.17
2019-01-11T06:12:40.534Z,86.90
2019-01-11T06:17:45.140Z,82.13
2019-01-11T06:22:48.007Z,99.87
2019-01-11T06:27:50.911Z,93.27
2019-01-11T06:32:53.768Z,111.73
2019-01-11T06:37:56.938Z,111.53
2019-01-11T06:43:03.509Z,104.50
2019-01-11T06:48:18.756Z,108.83
2019-01-11T06:53:21.589Z,97.43
2019-01-11T06:58:33.781Z,109.50
2019-01-11T07:03:41.462Z,113.07
2019-01-11T07:08:44.346Z,101.47
2019-01-11T07:13:48.403Z,103.87
2019-01-11T07:18:51.272Z,117.00
2019-01-11T07:23:54.707Z,107.27
2019-01-11T07:28:57.603Z,107.27
2019-01-11T07:34:00.537Z,112.90
2019-01-11T07:39:12.666Z,106.17
2019-01-11T07:44:17.716Z,96.47
2019-01-11T07:49:23.298Z,100.23
2019-01-11T07:54:31.362Z,90.23
2019-01-11T07:59:34.206Z,87.23
2019-01-11T08:04:37.062Z,93.80
2019-01-11T08:09:43.079Z,91.90
2019-01-11T08:14:46.028Z,99.80
2019-01-11T08:19:57.787Z,106.37
2019-01-11T08:25:02.859Z,83.40
2019-01-11T08:30:11.405Z,89.73
2019-01-11T08:35:15.027Z,76.97
2019-01-11T08:40:17.859Z,85.23
2019-01-11T08:45:20.788Z,71.90
2019-01-11T08:50:34.146Z,71.77
2019-01-11T08:55:29.288Z,67.17
2019-01-11T09:00:32.216Z,53.77
2019-01-11T09:05:35.170Z,50.40
2019-01-11T09:10:42.259Z,49.13
2019-01-11T09:15:45.470Z,41.47
2019-01-11T09:20:48.305Z,38.43
2019-01-11T09:25:51.260Z,31.50
2019-01-11T09:30:54.168Z,28.03
2019-01-11T09:35:59.800Z,22.53
2019-01-11T09:41:06.254Z,28.43
2019-01-11T09:46:09.390Z,23.00
2019-01-11T09:51:15.645Z,24.47
2019-01-11T09:56:17.009Z,25.37
2019-01-11T10:01:19.884Z,21.43
2019-01-11T10:06:22.808Z,18.27
2019-01-11T10:11:25.753Z,17.90
2019-01-11T10:16:29.364Z,12.30
2019-01-11T10:21:32.467Z,11.57
2019-01-11T10:26:35.340Z,19.13
2019-01-11T10:31:38.206Z,18.60
2019-01-11T10:36:41.068Z,14.57
2019-01-11T10:41:43.968Z,13.73
2019-01-11T10:46:49.191Z,16.83
2019-01-11T10:51:52.377Z,18.00
2019-01-11T10:56:58.025Z,11.30
2019-01-11T11:02:05.181Z,11.87
2019-01-11T11:07:07.569Z,11.53
2019-01-11T11:12:13.177Z,7.77
2019-01-11T11:17:16.099Z,11.13
2019-01-11T11:22:22.024Z,11.10
2019-01-11T11:27:24.892Z,11.93
2019-01-11T11:32:53.586Z,10.67
2019-01-11T11:37:56.610Z,9.83
2019-01-11T11:42:59.500Z,8.70
2019-01-11T11:48:03.788Z,8.50
2019-01-11T11:53:06.811Z,8.33
2019-01-11T11:58:12.729Z,5.30
2019-01-11T12:03:18.708Z,6.50
2019-01-11T12:08:21.658Z,5.20
2019-01-11T12:13:24.498Z,6.33
2019-01-11T12:18:27.416Z,6.50
2019-01-11T12:23:33.701Z,4.90
2019-01-11T12:28:36.724Z,7.60
2019-01-11T12:33:39.583Z,4.83
2019-01-11T12:38:42.439Z,9.60
2019-01-11T12:43:49.847Z,6.30
2019-01-11T12:48:52.924Z,6.10
2019-01-11T12:53:55.817Z,10.40
2019-01-11T12:58:59.240Z,6.30
2019-01-11T13:04:02.373Z,5.37
2019-01-11T13:09:07.528Z,8.27
2019-01-11T13:14:10.361Z,5.63
2019-01-11T13:19:13.654Z,10.40
2019-01-11T13:24:16.623Z,6.37
2019-01-11T13:29:19.469Z,7.90
2019-01-11T13:34:23.997Z,6.97
2019-01-11T13:39:29.542Z,11.07
2019-01-11T13:44:32.415Z,13.03
2019-01-11T13:49:35.345Z,10.47
2019-01-11T13:54:38.250Z,11.00
2019-01-11T13:59:41.599Z,18.03
2019-01-11T14:04:44.911Z,14.10
2019-01-11T14:09:47.703Z,10.30
2019-01-11T14:14:50.607Z,13.90
2019-01-11T14:19:53.648Z,17.33
2019-01-11T14:24:59.500Z,15.13
2019-01-11T14:30:02.519Z,16.80
2019-01-11T14:35:06.425Z,17.27
2019-01-11T14:40:11.325Z,20.07
2019-01-11T14:45:15.343Z,12.70
2019-01-11T14:50:18.936Z,16.57
2019-01-11T14:55:21.883Z,21.50
2019-01-11T15:00:28.492Z,13.07
2019-01-11T15:05:34.777Z,27.70
2019-01-11T15:10:37.989Z,15.80
2019-01-11T15:15:42.145Z,17.63
2019-01-11T15:20:45.034Z,20.10
2019-01-11T15:25:50.925Z,22.30
2019-01-11T15:30:54.166Z,24.47
2019-01-11T15:35:57.400Z,24.57
2019-01-11T15:41:00.722Z,20.27
2019-01-11T15:46:05.867Z,21.97
2019-01-11T15:51:09.277Z,18.23
2019-01-11T15:56:24.419Z,29.50
2019-01-11T16:01:30.673Z,33.57
2019-01-11T16:06:35.304Z,25.30
2019-01-11T16:11:49.764Z,28.37
2019-01-11T16:17:02.354Z,29.80
2019-01-11T16:22:27.643Z,24.57
2019-01-11T16:27:31.228Z,33.83
2019-01-11T16:32:34.511Z,28.77
2019-01-11T16:37:40.698Z,20.17
2019-01-11T16:42:46.857Z,25.90
2019-01-11T16:47:50.478Z,25.13
2019-01-11T16:52:53.918Z,31.80
2019-01-11T16:57:57.219Z,32.17
2019-01-11T17:03:00.388Z,35.57
2019-01-11T17:08:03.765Z,30.17
2019-01-11T17:13:07.133Z,31.10
2019-01-11T17:18:10.749Z,27.00
2019-01-11T17:23:14.296Z,45.70
2019-01-11T17:28:18.087Z,38.23
2019-01-11T17:33:21.636Z,40.37
2019-01-11T17:38:24.772Z,34.90
2019-01-11T17:43:29.383Z,32.23
2019-01-11T17:48:32.866Z,33.97
2019-01-11T17:53:36.123Z,32.73
2019-01-11T17:58:39.611Z,38.37
2019-01-11T18:03:43.067Z,40.47
2019-01-11T18:08:49.657Z,39.47
2019-01-11T18:13:56.171Z,34.43
2019-01-11T18:18:59.444Z,38.10
2019-01-11T18:24:02.931Z,47.40
2019-01-11T18:29:06.226Z,38.87
2019-01-11T18:34:11.933Z,35.33
2019-01-11T18:39:19.640Z,38.27
2019-01-11T18:44:23.175Z,46.10
2019-01-11T18:49:26.411Z,28.60
2019-01-11T18:54:35.915Z,39.93
2019-01-11T18:59:39.353Z,39.07
2019-01-11T19:05:03.891Z,34.50
2019-01-11T19:10:10.609Z,43.70
2019-01-11T19:15:16.451Z,41.67
2019-01-11T19:20:24.891Z,40.00
2019-01-11T19:25:28.760Z,41.77
2019-01-11T19:30:32.193Z,40.87
2019-01-11T19:35:39.676Z,36.57
2019-01-11T19:40:47.182Z,43.30
2019-01-11T19:45:54.605Z,43.60
2019-01-11T19:50:59.803Z,47.83
2019-01-11T19:56:03.737Z,40.40
2019-01-11T20:01:11.801Z,38.43
2019-01-11T20:06:17.852Z,48.33
2019-01-11T20:11:21.366Z,50.03
2019-01-11T20:16:25.259Z,42.60
2019-01-11T20:21:36.838Z,44.80
2019-01-11T20:26:42.633Z,38.87
2019-01-11T20:31:46.247Z,48.47
2019-01-11T20:37:01.004Z,39.67
2019-01-11T20:42:04.544Z,38.40
2019-01-11T20:47:09.904Z,45.30
2019-01-11T20:52:16.221Z,39.83
2019-01-11T20:57:19.640Z,41.30
2019-01-11T21:02:23.684Z,39.00
2019-01-11T21:07:27.100Z,34.47
2019-01-11T21:12:30.384Z,32.33
2019-01-11T21:17:33.956Z,44.27
2019-01-11T21:22:37.417Z,40.93
2019-01-11T21:27:40.984Z,44.40
2019-01-11T21:32:44.645Z,36.33
2019-01-11T21:37:49.658Z,35.67
2019-01-11T21:42:58.946Z,35.07
2019-01-11T21:48:02.518Z,30.13
2019-01-11T21:53:12.079Z,33.30
2019-01-11T21:58:15.618Z,39.43
2019-01-11T22:03:20.695Z,33.87
2019-01-11T22:08:24.469Z,36.67
2019-01-11T22:13:30.747Z,35.47
2019-01-11T22:18:34.105Z,28.53
2019-01-11T22:23:37.676Z,36.70
2019-01-11T22:28:43.185Z,34.53
2019-01-11T22:34:04.404Z,40.77
2019-01-11T22:39:08.078Z,25.27
2019-01-11T22:44:12.953Z,32.53
2019-01-11T22:49:17.420Z,37.43
2019-01-11T22:54:20.607Z,29.20
2019-01-11T22:59:26.954Z,35.50
2019-01-11T23:04:30.575Z,33.10
2019-01-11T23:09:48.220Z,25.20
2019-01-11T23:14:54.734Z,29.70
2019-01-11T23:19:58.356Z,31.67
2019-01-11T23:25:01.807Z,40.83
2019-01-11T23:30:08.526Z,33.67
2019-01-11T23:35:14.909Z,41.07
2019-01-11T23:40:18.223Z,32.90
2019-01-11T23:45:21.662Z,28.43
2019-01-11T23:50:27.953Z,34.17
2019-01-11T23:55:31.263Z,28.40
